Three Rivers, Mississippi
Current Conditions -  °F | °C
As of 1:53 AM on Tuesday 27 Jan 2015 (Local Time) from KPQL Reporting Station
Clear Clear  
Wind Chill: 40°   Ceiling: Unl
Heat Index: 40°   Visibility: 10mi
Dew Point: 35°   Wind: 3mph
Humidity: 83%   Direction: 260°W
Pressure: 30.07"   Gusts: NA
Location:  30.3649°N, 88.5432°W
Report Text: KPQL 270753Z AUTO 26003KT 10SM CLR 04/02 A3007 RMK AO2 SLP183 T00440017 TSNO $
Loading
Personal Weather Stations






























Interactive Weather Map New forecast layout! Learn more

10-Day Weather Forecast

Advertisements
Track Severe Weather on mobile